createdAt,value
2018-07-21T00:02:04.590Z,8.30
2018-07-21T00:04:31.616Z,5.63
2018-07-21T00:06:58.638Z,12.17
2018-07-21T00:09:26.112Z,6.00
2018-07-21T00:11:53.128Z,8.63
2018-07-21T00:14:20.125Z,7.83
2018-07-21T00:16:47.104Z,4.90
2018-07-21T00:19:14.082Z,7.37
2018-07-21T00:21:41.256Z,5.80
2018-07-21T00:24:08.949Z,7.80
2018-07-21T00:26:49.218Z,6.00
2018-07-21T00:29:17.108Z,7.23
2018-07-21T00:31:44.146Z,7.23
2018-07-21T00:34:11.133Z,5.27
2018-07-21T00:36:38.669Z,4.93
2018-07-21T00:39:08.809Z,10.90
2018-07-21T00:41:35.817Z,5.47
2018-07-21T00:44:02.849Z,6.77
2018-07-21T00:46:29.937Z,5.20
2018-07-21T00:48:56.932Z,6.37
2018-07-21T00:51:23.941Z,6.67
2018-07-21T00:53:51.333Z,5.77
2018-07-21T00:56:18.304Z,6.50
2018-07-21T00:58:45.310Z,5.97
2018-07-21T01:01:12.292Z,9.33
2018-07-21T01:03:39.322Z,6.40
2018-07-21T01:06:06.321Z,8.90
2018-07-21T01:08:33.397Z,6.30
2018-07-21T01:11:00.401Z,5.73
2018-07-21T01:13:27.381Z,6.73
2018-07-21T01:15:54.398Z,6.53
2018-07-21T01:18:21.402Z,7.60
2018-07-21T01:20:48.484Z,5.87
2018-07-21T01:23:15.494Z,7.97
2018-07-21T01:25:42.529Z,8.23
2018-07-21T01:28:09.619Z,5.03
2018-07-21T01:30:36.602Z,7.33
2018-07-21T01:33:03.632Z,5.03
2018-07-21T01:35:30.744Z,5.00
2018-07-21T01:37:57.750Z,7.87
2018-07-21T01:40:24.747Z,9.30
2018-07-21T01:42:52.077Z,9.20
2018-07-21T01:45:19.069Z,5.33
2018-07-21T01:47:46.050Z,6.10
2018-07-21T01:50:13.049Z,6.77
2018-07-21T01:52:40.042Z,6.20
2018-07-21T01:55:07.122Z,5.53
2018-07-21T01:57:34.149Z,8.23
2018-07-21T02:00:01.121Z,7.23
2018-07-21T02:02:28.170Z,7.87
2018-07-21T02:04:55.161Z,7.10
2018-07-21T02:07:22.153Z,5.60
2018-07-21T02:09:49.150Z,8.43
2018-07-21T02:12:16.245Z,7.90
2018-07-21T02:14:43.252Z,5.33
2018-07-21T02:17:10.625Z,6.43
2018-07-21T02:19:37.710Z,10.87
2018-07-21T02:22:04.745Z,5.20
2018-07-21T02:24:31.981Z,4.83
2018-07-21T02:26:58.959Z,7.60
2018-07-21T02:29:25.949Z,9.47
2018-07-21T02:31:52.917Z,5.90
2018-07-21T02:34:20.009Z,9.57
2018-07-21T02:36:47.017Z,6.70
2018-07-21T02:39:14.069Z,9.67
2018-07-21T02:41:41.285Z,8.07
2018-07-21T02:44:08.312Z,6.93
2018-07-21T02:46:35.497Z,7.07
2018-07-21T02:49:02.505Z,7.17
2018-07-21T02:51:29.585Z,11.13
2018-07-21T02:53:56.680Z,7.60
2018-07-21T02:56:23.661Z,9.20
2018-07-21T02:58:50.821Z,10.60
2018-07-21T03:01:17.858Z,7.80
2018-07-21T03:03:45.474Z,9.30
2018-07-21T03:06:12.482Z,8.57
2018-07-21T03:08:39.497Z,7.13
2018-07-21T03:11:06.558Z,7.27
2018-07-21T03:13:33.674Z,9.10
2018-07-21T03:16:00.667Z,7.35
2018-07-21T03:18:27.701Z,13.73
2018-07-21T03:20:54.665Z,8.30
2018-07-21T03:23:21.658Z,8.67
2018-07-21T03:25:48.600Z,8.50
2018-07-21T03:28:15.552Z,8.40
2018-07-21T03:30:42.650Z,7.90
2018-07-21T03:33:09.562Z,7.97
2018-07-21T03:35:36.545Z,8.10
2018-07-21T03:38:03.860Z,8.43
2018-07-21T03:40:30.905Z,7.47
2018-07-21T03:42:57.820Z,8.20
2018-07-21T03:45:24.812Z,7.70
2018-07-21T03:47:51.768Z,9.60
2018-07-21T03:50:18.737Z,9.63
2018-07-21T03:52:45.918Z,9.03
2018-07-21T03:55:13.085Z,9.03
2018-07-21T03:57:40.013Z,7.53
2018-07-21T04:00:07.079Z,7.90
2018-07-21T04:02:34.061Z,8.20
2018-07-21T04:05:01.050Z,6.83
2018-07-21T04:07:28.096Z,10.50
2018-07-21T04:09:55.089Z,9.03
2018-07-21T04:12:22.064Z,9.67
2018-07-21T04:14:49.138Z,11.30
2018-07-21T04:17:21.482Z,8.37
2018-07-21T04:19:48.484Z,9.50
2018-07-21T04:22:15.512Z,9.77
2018-07-21T04:24:42.549Z,7.03
2018-07-21T04:27:09.534Z,8.13
2018-07-21T04:29:36.508Z,10.20
2018-07-21T04:32:03.617Z,10.77
2018-07-21T04:34:30.605Z,7.53
2018-07-21T04:36:57.658Z,7.90
2018-07-21T04:39:24.617Z,7.53
2018-07-21T04:41:51.572Z,7.03
2018-07-21T04:44:18.545Z,7.80
2018-07-21T04:46:45.716Z,10.20
2018-07-21T04:49:12.681Z,9.83
2018-07-21T04:51:39.654Z,7.60
2018-07-21T04:54:06.637Z,9.40
2018-07-21T04:56:33.672Z,10.10
2018-07-21T04:59:00.685Z,7.90
2018-07-21T05:01:27.666Z,7.23
2018-07-21T05:03:54.626Z,8.40
2018-07-21T05:06:21.665Z,7.37
2018-07-21T05:08:48.701Z,7.40
2018-07-21T05:11:15.704Z,7.87
2018-07-21T05:13:42.689Z,6.60
2018-07-21T05:16:09.792Z,8.27
2018-07-21T05:18:36.841Z,6.93
2018-07-21T05:21:03.829Z,7.17
2018-07-21T05:23:30.873Z,7.83
2018-07-21T05:25:57.896Z,7.63
2018-07-21T05:28:24.862Z,6.67
2018-07-21T05:30:51.933Z,5.83
2018-07-21T05:33:18.889Z,6.53
2018-07-21T05:35:45.886Z,5.80
2018-07-21T05:38:12.869Z,7.13
2018-07-21T05:40:39.880Z,7.70
2018-07-21T05:43:06.993Z,5.50
2018-07-21T05:45:33.989Z,5.87
2018-07-21T05:48:00.957Z,7.23
2018-07-21T05:50:28.037Z,6.07
2018-07-21T05:52:55.101Z,6.60
2018-07-21T05:55:22.189Z,6.53
2018-07-21T05:57:49.193Z,6.87
2018-07-21T06:00:16.204Z,6.50
2018-07-21T06:02:43.365Z,10.00
2018-07-21T06:05:10.339Z,5.67
2018-07-21T06:07:37.324Z,6.17
2018-07-21T06:10:04.366Z,6.00
2018-07-21T06:12:31.497Z,6.00
2018-07-21T06:14:58.539Z,9.90
2018-07-21T06:17:26.121Z,7.30
2018-07-21T06:19:53.081Z,8.40
2018-07-21T06:22:20.189Z,5.70
2018-07-21T06:24:47.328Z,5.93
2018-07-21T06:27:14.327Z,8.77
2018-07-21T06:29:41.915Z,5.47
2018-07-21T06:32:09.145Z,6.40
2018-07-21T06:34:36.706Z,5.63
2018-07-21T06:37:03.817Z,5.90
2018-07-21T06:39:30.768Z,6.60
2018-07-21T06:41:57.757Z,8.20
2018-07-21T06:44:24.724Z,6.03
2018-07-21T06:46:52.549Z,5.80
2018-07-21T06:49:19.533Z,6.17
2018-07-21T06:51:46.601Z,7.00
2018-07-21T06:54:13.576Z,7.57
2018-07-21T06:56:40.673Z,7.60
2018-07-21T06:59:07.674Z,5.30
2018-07-21T07:01:34.629Z,6.33
2018-07-21T07:04:01.864Z,6.33
2018-07-21T07:06:28.832Z,5.77
2018-07-21T07:08:55.802Z,5.50
2018-07-21T07:11:22.854Z,6.27
2018-07-21T07:13:49.849Z,5.70
2018-07-21T07:16:17.351Z,7.47
2018-07-21T07:18:45.153Z,8.27
2018-07-21T07:21:12.141Z,9.33
2018-07-21T07:23:39.141Z,7.17
2018-07-21T07:26:06.099Z,6.27
2018-07-21T07:28:33.075Z,6.60
2018-07-21T07:31:00.061Z,6.50
2018-07-21T07:33:27.045Z,5.00
2018-07-21T07:35:54.005Z,6.87
2018-07-21T07:38:21.013Z,6.40
2018-07-21T07:40:47.965Z,5.40
2018-07-21T07:43:14.979Z,5.27
2018-07-21T07:45:41.960Z,5.53
2018-07-21T07:48:08.965Z,6.20
2018-07-21T07:50:35.950Z,5.47
2018-07-21T07:53:03.024Z,6.83
2018-07-21T07:55:31.079Z,5.40
2018-07-21T07:57:58.357Z,5.43
2018-07-21T08:00:25.333Z,7.07
2018-07-21T08:02:52.438Z,5.60
2018-07-21T08:05:19.425Z,4.53
2018-07-21T08:07:46.546Z,5.80
2018-07-21T08:10:14.092Z,6.60
2018-07-21T08:12:41.064Z,5.50
2018-07-21T08:15:08.132Z,6.00
2018-07-21T08:17:35.245Z,5.77
2018-07-21T08:20:02.253Z,5.80
2018-07-21T08:22:29.220Z,9.17
2018-07-21T08:24:56.165Z,5.60
2018-07-21T08:27:23.168Z,4.93
2018-07-21T08:29:50.188Z,6.67
2018-07-21T08:32:17.268Z,5.37
2018-07-21T08:34:44.361Z,7.10
2018-07-21T08:37:11.293Z,6.17
2018-07-21T08:39:38.273Z,7.23
2018-07-21T08:42:05.221Z,6.93
2018-07-21T08:44:32.277Z,8.17
2018-07-21T08:46:59.282Z,5.10
2018-07-21T08:49:26.340Z,5.60
2018-07-21T08:51:53.320Z,6.60
2018-07-21T08:54:20.421Z,7.50
2018-07-21T08:56:47.369Z,6.87
2018-07-21T08:59:14.507Z,6.40
2018-07-21T09:01:41.476Z,4.80
2018-07-21T09:04:08.481Z,5.60
2018-07-21T09:06:35.457Z,6.97
2018-07-21T09:09:02.601Z,6.40
2018-07-21T09:11:29.577Z,5.47
2018-07-21T09:13:56.548Z,8.30
2018-07-21T09:16:23.521Z,5.57
2018-07-21T09:18:50.536Z,5.50
2018-07-21T09:21:17.485Z,4.80
2018-07-21T09:23:44.513Z,6.57
2018-07-21T09:26:11.581Z,5.30
2018-07-21T09:28:38.664Z,5.23
2018-07-21T09:31:05.697Z,5.33
2018-07-21T09:33:32.691Z,5.80
2018-07-21T09:35:59.657Z,7.20
2018-07-21T09:38:26.653Z,5.27
2018-07-21T09:40:53.612Z,9.90
2018-07-21T09:43:20.591Z,7.50
2018-07-21T09:45:47.567Z,5.70
2018-07-21T09:48:14.556Z,7.10
2018-07-21T09:50:41.562Z,6.13
2018-07-21T09:53:09.262Z,5.33
2018-07-21T09:55:36.254Z,5.80
2018-07-21T09:58:03.216Z,5.20
2018-07-21T10:00:35.934Z,8.27
2018-07-21T10:03:02.909Z,5.53
2018-07-21T10:05:29.916Z,5.87
2018-07-21T10:07:56.890Z,5.60
2018-07-21T10:10:23.896Z,6.90
2018-07-21T10:12:51.555Z,6.77
2018-07-21T10:15:18.533Z,6.50
2018-07-21T10:17:45.542Z,7.37
2018-07-21T10:20:12.645Z,5.47
2018-07-21T10:22:39.664Z,5.80
2018-07-21T10:25:12.325Z,5.97
2018-07-21T10:27:45.105Z,9.33
2018-07-21T10:30:12.181Z,5.03
2018-07-21T10:32:39.153Z,5.80
2018-07-21T10:35:06.141Z,6.37
2018-07-21T10:37:33.120Z,5.23
2018-07-21T10:40:00.160Z,5.77
2018-07-21T10:42:27.138Z,6.23
2018-07-21T10:44:54.153Z,16.73
2018-07-21T10:47:21.164Z,5.70
2018-07-21T10:49:48.577Z,6.10
2018-07-21T10:52:15.529Z,5.70
2018-07-21T10:54:42.550Z,6.70
2018-07-21T10:57:09.593Z,5.10
2018-07-21T10:59:36.580Z,5.87
2018-07-21T11:02:03.590Z,5.40
2018-07-21T11:04:30.665Z,6.30
2018-07-21T11:06:57.717Z,5.33
2018-07-21T11:09:24.690Z,5.70
2018-07-21T11:11:51.642Z,6.23
2018-07-21T11:14:18.625Z,5.70
2018-07-21T11:16:45.633Z,5.70
2018-07-21T11:19:12.664Z,6.63
2018-07-21T11:21:39.701Z,5.67
2018-07-21T11:24:06.666Z,5.70
2018-07-21T11:26:33.664Z,5.53
2018-07-21T11:29:00.636Z,6.13
2018-07-21T11:31:27.611Z,6.33
2018-07-21T11:33:54.585Z,5.47
2018-07-21T11:36:21.606Z,6.60
2018-07-21T11:38:48.556Z,8.60
2018-07-21T11:41:15.634Z,7.43
2018-07-21T11:43:42.593Z,5.90
2018-07-21T11:46:09.584Z,7.73
2018-07-21T11:48:36.578Z,6.20
2018-07-21T11:51:03.773Z,6.23
2018-07-21T11:53:30.777Z,6.50
2018-07-21T11:55:57.833Z,5.83
2018-07-21T11:58:24.813Z,5.87
2018-07-21T12:00:51.825Z,6.27
2018-07-21T12:03:18.780Z,6.43
2018-07-21T12:05:45.979Z,7.00
2018-07-21T12:08:13.177Z,6.17
2018-07-21T12:10:40.212Z,6.10
2018-07-21T12:13:07.238Z,7.40
2018-07-21T12:15:34.215Z,5.47
2018-07-21T12:18:01.177Z,5.37
2018-07-21T12:20:28.161Z,8.70
2018-07-21T12:22:55.152Z,6.50
2018-07-21T12:25:22.137Z,5.73
2018-07-21T12:27:49.176Z,6.63
2018-07-21T12:30:16.157Z,6.07
2018-07-21T12:32:43.109Z,5.97
2018-07-21T12:35:10.129Z,5.80
2018-07-21T12:37:37.201Z,9.30
2018-07-21T12:40:04.376Z,6.03
2018-07-21T12:42:31.385Z,6.10
2018-07-21T12:44:58.390Z,7.93
2018-07-21T12:47:25.329Z,6.40
2018-07-21T12:49:52.284Z,5.37
2018-07-21T12:52:19.289Z,6.50
2018-07-21T12:54:46.981Z,6.80
2018-07-21T12:57:14.013Z,5.50
2018-07-21T12:59:40.968Z,6.40
2018-07-21T13:02:07.945Z,7.63
2018-07-21T13:04:35.085Z,6.93
2018-07-21T13:07:02.069Z,6.13
2018-07-21T13:09:29.041Z,6.50
2018-07-21T13:11:56.065Z,7.07
2018-07-21T13:14:23.065Z,6.77
2018-07-21T13:16:50.069Z,5.73
2018-07-21T13:19:17.721Z,6.00
2018-07-21T13:21:44.777Z,6.73
2018-07-21T13:24:11.777Z,5.93
2018-07-21T13:26:38.773Z,9.10
2018-07-21T13:29:05.753Z,6.40
2018-07-21T13:31:32.782Z,5.87
2018-07-21T13:33:59.789Z,6.40
2018-07-21T13:36:26.764Z,6.57
2018-07-21T13:38:53.729Z,6.00
2018-07-21T13:41:20.758Z,8.70
2018-07-21T13:43:47.720Z,6.33
2018-07-21T13:46:14.718Z,6.73
2018-07-21T13:48:41.737Z,6.40
2018-07-21T13:51:08.754Z,5.70
2018-07-21T13:53:35.716Z,7.63
2018-07-21T13:56:02.761Z,7.27
2018-07-21T13:58:29.777Z,6.83
2018-07-21T14:00:56.757Z,6.83
2018-07-21T14:03:23.749Z,6.83
2018-07-21T14:05:50.729Z,6.97
2018-07-21T14:08:17.722Z,5.63
2018-07-21T14:10:44.725Z,6.87
2018-07-21T14:13:11.756Z,6.87
2018-07-21T14:15:38.796Z,7.20
2018-07-21T14:18:06.036Z,7.23
2018-07-21T14:20:33.006Z,7.93
2018-07-21T14:23:00.014Z,7.00
2018-07-21T14:25:27.006Z,6.73
2018-07-21T14:27:54.824Z,8.10
2018-07-21T14:30:21.826Z,7.80
2018-07-21T14:32:48.800Z,6.87
2018-07-21T14:35:15.884Z,7.00
2018-07-21T14:37:42.975Z,6.23
2018-07-21T14:40:09.950Z,7.10
2018-07-21T14:42:36.962Z,7.60
2018-07-21T14:45:04.506Z,6.30
2018-07-21T14:47:31.665Z,7.13
2018-07-21T14:49:58.594Z,7.47
2018-07-21T14:52:25.628Z,6.80
2018-07-21T14:54:52.710Z,7.23
2018-07-21T14:57:19.625Z,9.00
2018-07-21T14:59:46.599Z,7.00
2018-07-21T15:02:13.768Z,6.70
2018-07-21T15:04:41.069Z,6.67
2018-07-21T15:07:08.477Z,7.67
2018-07-21T15:09:35.543Z,8.10
2018-07-21T15:12:02.521Z,6.80
2018-07-21T15:14:29.513Z,6.50
2018-07-21T15:16:56.477Z,7.03
2018-07-21T15:19:23.988Z,8.43
2018-07-21T15:21:51.017Z,7.97
2018-07-21T15:24:17.997Z,8.27
2018-07-21T15:26:44.976Z,6.90
2018-07-21T15:29:12.009Z,7.37
2018-07-21T15:31:39.048Z,7.73
2018-07-21T15:34:06.092Z,7.47
2018-07-21T15:36:33.113Z,7.90
2018-07-21T15:39:00.128Z,8.30
2018-07-21T15:41:27.126Z,7.47
2018-07-21T15:43:55.092Z,7.10
2018-07-21T15:46:22.256Z,8.77
2018-07-21T15:48:49.282Z,7.80
2018-07-21T15:51:16.244Z,8.20
2018-07-21T15:53:43.296Z,7.67
2018-07-21T15:56:10.321Z,7.40
2018-07-21T15:58:37.433Z,7.73
2018-07-21T16:01:04.501Z,6.17
2018-07-21T16:03:31.511Z,8.47
2018-07-21T16:05:58.546Z,8.90
2018-07-21T16:08:25.510Z,10.30
2018-07-21T16:10:52.510Z,6.90
2018-07-21T16:13:19.529Z,8.00
2018-07-21T16:15:46.517Z,7.30
2018-07-21T16:18:13.516Z,8.40
2018-07-21T16:20:40.708Z,7.40
2018-07-21T16:23:07.885Z,9.13
2018-07-21T16:25:35.672Z,7.90
2018-07-21T16:28:02.690Z,8.37
2018-07-21T16:30:29.637Z,7.47
2018-07-21T16:32:56.809Z,7.53
2018-07-21T16:35:23.803Z,6.80
2018-07-21T16:37:50.781Z,8.57
2018-07-21T16:40:17.779Z,8.93
2018-07-21T16:42:44.765Z,11.13
2018-07-21T16:45:11.734Z,8.13
2018-07-21T16:47:38.726Z,8.20
2018-07-21T16:50:05.892Z,8.20
2018-07-21T16:52:33.069Z,8.90
2018-07-21T16:55:00.041Z,9.47
2018-07-21T16:57:27.139Z,9.47
2018-07-21T16:59:54.245Z,8.07
2018-07-21T17:02:21.156Z,9.57
2018-07-21T17:04:48.161Z,9.50
2018-07-21T17:07:15.119Z,8.37
2018-07-21T17:09:42.073Z,9.97
2018-07-21T17:12:09.029Z,8.20
2018-07-21T17:14:36.165Z,8.37
2018-07-21T17:17:03.153Z,8.80
2018-07-21T17:19:30.129Z,11.00
2018-07-21T17:21:57.133Z,12.17
2018-07-21T17:24:24.141Z,9.00
2018-07-21T17:26:51.093Z,9.03
2018-07-21T17:29:18.084Z,9.43
2018-07-21T17:31:45.057Z,9.37
2018-07-21T17:34:12.029Z,8.37
2018-07-21T17:36:39.100Z,8.80
2018-07-21T17:39:07.479Z,7.90
2018-07-21T17:41:34.461Z,10.97
2018-07-21T17:44:01.492Z,10.37
2018-07-21T17:46:28.567Z,9.63
2018-07-21T17:48:55.540Z,8.40
2018-07-21T17:51:22.617Z,8.30
2018-07-21T17:53:49.609Z,12.33
2018-07-21T17:56:16.630Z,9.00
2018-07-21T17:58:43.597Z,7.70
2018-07-21T18:01:10.590Z,8.60
2018-07-21T18:03:37.556Z,8.43
2018-07-21T18:06:04.827Z,10.10
2018-07-21T18:08:31.799Z,11.07
2018-07-21T18:10:58.776Z,9.57
2018-07-21T18:13:26.577Z,10.37
2018-07-21T18:15:54.538Z,10.40
2018-07-21T18:18:21.612Z,9.30
2018-07-21T18:20:48.580Z,8.07
2018-07-21T18:23:15.585Z,7.57
2018-07-21T18:25:42.792Z,8.10
2018-07-21T18:28:10.056Z,8.43
2018-07-21T18:30:37.025Z,8.90
2018-07-21T18:33:04.260Z,8.23
2018-07-21T18:35:31.221Z,8.00
2018-07-21T18:37:58.256Z,8.90
2018-07-21T18:40:25.407Z,8.37
2018-07-21T18:42:52.376Z,8.70
2018-07-21T18:45:19.426Z,9.37
2018-07-21T18:47:46.389Z,7.87
2018-07-21T18:50:13.417Z,8.53
2018-07-21T18:52:40.393Z,9.87
2018-07-21T18:55:07.344Z,7.77
2018-07-21T18:57:34.365Z,8.90
2018-07-21T19:00:01.571Z,8.77
2018-07-21T19:02:28.905Z,11.07
2018-07-21T19:04:55.938Z,9.53
2018-07-21T19:07:22.914Z,9.77
2018-07-21T19:09:49.860Z,11.93
2018-07-21T19:12:22.785Z,10.23
2018-07-21T19:14:50.058Z,13.67
2018-07-21T19:17:17.020Z,10.23
2018-07-21T19:19:49.690Z,10.90
2018-07-21T19:22:16.649Z,10.10
2018-07-21T19:24:43.981Z,11.00
2018-07-21T19:27:16.705Z,10.87
2018-07-21T19:29:43.672Z,11.53
2018-07-21T19:32:16.293Z,9.50
2018-07-21T19:34:43.256Z,10.70
2018-07-21T19:37:16.058Z,10.47
2018-07-21T19:39:43.354Z,11.73
2018-07-21T19:42:10.318Z,12.17
2018-07-21T19:44:37.364Z,12.17
2018-07-21T19:47:05.782Z,12.03
2018-07-21T19:49:32.788Z,13.07
2018-07-21T19:51:59.753Z,11.83
2018-07-21T19:54:26.738Z,11.83
2018-07-21T19:56:53.932Z,14.40
2018-07-21T19:59:20.876Z,11.60
2018-07-21T20:01:47.860Z,11.00
2018-07-21T20:04:15.033Z,10.47
2018-07-21T20:06:42.537Z,9.37
2018-07-21T20:09:10.041Z,11.03
2018-07-21T20:11:37.238Z,12.03
2018-07-21T20:14:04.355Z,10.17
2018-07-21T20:16:31.345Z,9.50
2018-07-21T20:18:58.465Z,11.70
2018-07-21T20:21:25.597Z,9.70
2018-07-21T20:23:52.633Z,10.33
2018-07-21T20:26:19.616Z,11.73
2018-07-21T20:28:46.573Z,10.17
2018-07-21T20:31:13.557Z,9.57
2018-07-21T20:33:40.509Z,8.80
2018-07-21T20:36:07.457Z,9.50
2018-07-21T20:38:35.179Z,10.53
2018-07-21T20:41:02.166Z,12.47
2018-07-21T20:43:29.232Z,10.97
2018-07-21T20:45:56.149Z,10.10
2018-07-21T20:48:23.186Z,8.67
2018-07-21T20:50:50.272Z,10.90
2018-07-21T20:53:17.482Z,9.07
2018-07-21T20:55:44.469Z,8.23
2018-07-21T20:58:11.664Z,9.83
2018-07-21T21:00:38.702Z,9.70
2018-07-21T21:03:05.694Z,11.80
2018-07-21T21:05:32.648Z,8.97
2018-07-21T21:07:59.613Z,9.40
2018-07-21T21:10:26.625Z,10.03
2018-07-21T21:12:53.833Z,10.10
2018-07-21T21:15:20.928Z,8.80
2018-07-21T21:17:47.917Z,10.00
2018-07-21T21:20:14.888Z,9.47
2018-07-21T21:22:41.896Z,10.77
2018-07-21T21:25:08.985Z,10.17
2018-07-21T21:27:35.981Z,10.20
2018-07-21T21:30:02.989Z,10.63
2018-07-21T21:32:30.097Z,11.37
2018-07-21T21:34:57.081Z,10.00
2018-07-21T21:37:24.109Z,8.83
2018-07-21T21:39:51.173Z,9.33
2018-07-21T21:42:18.321Z,10.37
2018-07-21T21:44:45.418Z,9.13
2018-07-21T21:47:12.444Z,12.17
2018-07-21T21:49:39.477Z,11.23
2018-07-21T21:52:06.505Z,13.10
2018-07-21T21:54:33.599Z,10.57
2018-07-21T21:57:00.580Z,9.00
2018-07-21T21:59:27.673Z,10.07
2018-07-21T22:01:54.665Z,9.90
2018-07-21T22:04:21.639Z,8.87
2018-07-21T22:06:48.665Z,11.17
2018-07-21T22:09:16.311Z,9.20
2018-07-21T22:11:43.297Z,10.07
2018-07-21T22:14:10.300Z,9.50
2018-07-21T22:16:37.300Z,12.10
2018-07-21T22:19:04.619Z,9.43
2018-07-21T22:21:31.725Z,9.37
2018-07-21T22:23:59.362Z,9.70
2018-07-21T22:26:26.405Z,12.30
2018-07-21T22:28:53.397Z,9.47
2018-07-21T22:31:20.658Z,8.93
2018-07-21T22:33:47.645Z,10.60
2018-07-21T22:36:14.641Z,8.97
2018-07-21T22:38:41.673Z,8.77
2018-07-21T22:41:08.873Z,9.40
2018-07-21T22:43:35.929Z,10.60
2018-07-21T22:46:03.623Z,9.73
2018-07-21T22:48:31.329Z,11.87
2018-07-21T22:50:58.353Z,10.17
2018-07-21T22:53:25.352Z,9.60
2018-07-21T22:55:52.345Z,10.10
2018-07-21T22:58:19.449Z,10.97
2018-07-21T23:00:46.458Z,11.57
2018-07-21T23:03:13.496Z,9.30
2018-07-21T23:05:41.419Z,9.10
2018-07-21T23:08:08.406Z,12.13
2018-07-21T23:10:35.462Z,9.97
2018-07-21T23:13:02.534Z,9.40
2018-07-21T23:15:29.477Z,10.17
2018-07-21T23:17:56.569Z,10.10
2018-07-21T23:20:24.433Z,9.93
2018-07-21T23:22:51.388Z,10.10
2018-07-21T23:25:18.356Z,11.00
2018-07-21T23:27:45.349Z,9.93
2018-07-21T23:30:12.333Z,10.07
2018-07-21T23:32:39.318Z,10.17
2018-07-21T23:35:06.336Z,12.27
2018-07-21T23:37:33.376Z,11.63
2018-07-21T23:40:00.371Z,14.13
2018-07-21T23:42:27.369Z,9.50
2018-07-21T23:44:54.373Z,10.80
2018-07-21T23:47:21.345Z,11.93
2018-07-21T23:49:48.330Z,10.87
2018-07-21T23:52:15.331Z,10.97
2018-07-21T23:54:42.323Z,10.87
2018-07-21T23:57:09.289Z,13.30
2018-07-21T23:59:36.300Z,16.50
